Time;durP1;ratioP1;P1;durP2;ratioP2;P2;SDS_P1;SDS_P2;PMS_P1;PMS_P2;Temp;Humidity;BMP_temperature;BMP_pressure;BME280_temperature;BME280_humidity;BME280_pressure;Samples;Min_cycle;Max_cycle;Signal;HPM_P1;HPM_P2
2022/07/26 00:01:38;;;;;;;;;;;18.70;99.90;;;;;;5136125;27;19924;-69
2022/07/26 00:04:04;;;;;;;;;;;18.70;99.90;;;;;;5118068;27;20344;-69
2022/07/26 00:06:29;;;;;;;;;;;18.70;99.90;;;;;;5136042;27;19927;-69
2022/07/26 00:08:55;;;;;;;;;;;18.60;99.90;;;;;;5136113;27;19923;-69
2022/07/26 00:11:20;;;;;;;;;;;18.60;99.90;;;;;;5135789;27;19929;-69
2022/07/26 00:13:46;;;;;;;;;;;18.60;99.90;;;;;;5136057;27;19978;-70
2022/07/26 00:16:12;;;;;;;;;;;18.60;99.90;;;;;;5135944;27;19942;-70
2022/07/26 00:18:38;;;;;;;;;;;18.60;99.90;;;;;;5135874;27;20309;-69
2022/07/26 00:21:03;;;;;;;;;;;18.50;99.90;;;;;;5135899;27;20332;-69
2022/07/26 00:23:29;;;;;;;;;;;18.50;99.90;;;;;;5135549;27;19923;-70
2022/07/26 00:25:55;;;;;;;;;;;18.50;99.90;;;;;;5135277;27;19924;-69
2022/07/26 00:28:21;;;;;;;;;;;18.50;99.90;;;;;;5135328;27;19961;-70
2022/07/26 00:30:46;;;;;;;;;;;18.50;99.90;;;;;;5135582;27;20014;-71
2022/07/26 00:33:12;;;;;;;;;;;18.50;99.90;;;;;;5117601;27;20010;-69
2022/07/26 00:35:38;;;;;;;;;;;18.50;99.90;;;;;;5135572;27;19970;-69
2022/07/26 00:38:04;;;;;;;;;;;18.50;99.90;;;;;;5134872;27;19948;-69
2022/07/26 00:40:29;;;;;;;;;;;17.70;99.90;;;;;;5135231;27;20419;-69
2022/07/26 00:42:55;;;;;;;;;;;18.50;99.90;;;;;;5117304;27;19924;-70
2022/07/26 00:45:20;;;;;;;;;;;18.50;99.90;;;;;;5117542;27;19927;-69
2022/07/26 00:47:46;;;;;;;;;;;18.40;99.90;;;;;;5135355;27;20012;-70
2022/07/26 00:50:14;;;;;;;;;;;18.40;99.90;;;;;;5135365;27;20382;-71
2022/07/26 00:52:46;;;;;;;;;;;18.40;99.90;;;;;;5135152;27;19953;-69
2022/07/26 00:55:12;;;;;;;;;;;18.40;99.90;;;;;;5135114;27;19923;-70
2022/07/26 00:57:38;;;;;;;;;;;18.40;99.90;;;;;;5134868;27;19931;-69
2022/07/26 01:00:05;;;;;;;;;;;18.40;99.90;;;;;;5135213;27;20374;-69
2022/07/26 01:02:31;;;;;;;;;;;18.30;99.90;;;;;;5135236;27;20025;-68
2022/07/26 01:04:56;;;;;;;;;;;18.40;99.90;;;;;;5135002;27;20025;-70
2022/07/26 01:07:22;;;;;;;;;;;18.30;99.90;;;;;;5135036;27;19974;-69
2022/07/26 01:09:48;;;;;;;;;;;18.30;99.90;;;;;;5135061;27;19930;-72
2022/07/26 01:12:13;;;;;;;;;;;18.30;99.90;;;;;;5151181;27;20018;-69
2022/07/26 01:14:43;;;;;;;;;;;18.30;99.90;;;;;;5116754;27;19923;-70
2022/07/26 01:17:09;;;;;;;;;;;18.30;99.90;;;;;;5134723;27;20259;-69
2022/07/26 01:19:35;;;;;;;;;;;17.40;99.90;;;;;;5134862;27;19924;-71
2022/07/26 01:22:00;;;;;;;;;;;18.20;99.90;;;;;;5134753;27;19923;-69
2022/07/26 01:24:26;;;;;;;;;;;18.20;99.90;;;;;;5116616;28;19966;-70
2022/07/26 01:26:54;;;;;;;;;;;18.20;99.90;;;;;;5134420;27;19923;-68
2022/07/26 01:29:20;;;;;;;;;;;18.30;99.90;;;;;;5116505;28;19931;-70
2022/07/26 01:31:46;;;;;;;;;;;18.20;99.90;;;;;;5134728;28;20434;-70
2022/07/26 01:34:11;;;;;;;;;;;18.20;99.90;;;;;;5116488;28;19924;-69
2022/07/26 01:36:37;;;;;;;;;;;18.20;99.90;;;;;;5134670;28;19928;-70
2022/07/26 01:39:02;;;;;;;;;;;18.20;99.90;;;;;;5134563;28;20022;-71
2022/07/26 01:41:28;;;;;;;;;;;18.40;99.90;;;;;;5134475;28;19970;-69
2022/07/26 01:43:53;;;;;;;;;;;18.20;99.90;;;;;;5134443;28;19923;-69
2022/07/26 01:46:19;;;;;;;;;;;18.20;99.90;;;;;;5134896;28;19923;-71
2022/07/26 01:48:44;;;;;;;;;;;18.20;99.90;;;;;;5134631;27;20324;-70
2022/07/26 01:51:10;;;;;;;;;;;18.20;99.90;;;;;;5120705;27;19924;-69
2022/07/26 01:53:35;;;;;;;;;;;18.20;99.90;;;;;;5138641;27;20378;-71
2022/07/26 01:56:01;;;;;;;;;;;18.20;99.90;;;;;;5119832;27;20289;-71
2022/07/26 01:58:27;;;;;;;;;;;18.20;99.90;;;;;;5138436;27;19927;-70
2022/07/26 02:00:52;;;;;;;;;;;18.20;99.90;;;;;;5138521;27;19927;-70
2022/07/26 02:03:18;;;;;;;;;;;18.10;99.90;;;;;;5138592;27;19992;-69
2022/07/26 02:05:43;;;;;;;;;;;18.10;99.90;;;;;;5138689;27;19923;-69
2022/07/26 02:08:09;;;;;;;;;;;18.10;99.90;;;;;;5138380;27;19924;-70
2022/07/26 02:13:19;;;;;;;;;;;18.10;99.90;;;;;;5138124;27;19970;-69
2022/07/26 02:15:45;;;;;;;;;;;18.00;99.90;;;;;;5138367;27;19931;-69
2022/07/26 02:18:10;;;;;;;;;;;18.00;99.90;;;;;;5120213;27;19924;-69
2022/07/26 02:20:36;;;;;;;;;;;18.00;99.90;;;;;;5138380;27;20518;-69
2022/07/26 02:23:02;;;;;;;;;;;17.90;99.90;;;;;;5138151;27;20339;-68
2022/07/26 02:25:28;;;;;;;;;;;18.00;99.90;;;;;;5137845;27;19969;-70
2022/07/26 02:27:53;;;;;;;;;;;18.10;99.90;;;;;;5137796;27;19928;-69
2022/07/26 02:30:19;;;;;;;;;;;18.00;99.90;;;;;;5138147;27;19969;-69
2022/07/26 02:32:45;;;;;;;;;;;18.00;99.90;;;;;;5154308;27;19993;-70
2022/07/26 02:35:10;;;;;;;;;;;17.90;99.90;;;;;;5137920;27;19930;-69
2022/07/26 02:37:36;;;;;;;;;;;17.90;99.90;;;;;;5137902;27;19923;-69
2022/07/26 02:40:02;;;;;;;;;;;17.90;99.90;;;;;;5137697;27;19930;-69
2022/07/26 02:42:28;;;;;;;;;;;17.90;99.90;;;;;;5119226;27;19975;-69
2022/07/26 02:44:53;;;;;;;;;;;17.90;99.90;;;;;;5137620;27;19928;-70
2022/07/26 02:47:19;;;;;;;;;;;17.90;99.90;;;;;;5137796;27;19970;-69
2022/07/26 02:49:45;;;;;;;;;;;17.90;99.90;;;;;;5137691;27;20558;-69
2022/07/26 02:52:10;;;;;;;;;;;17.80;99.90;;;;;;5137490;27;20382;-70
2022/07/26 02:54:36;;;;;;;;;;;17.80;99.90;;;;;;5137896;27;19931;-69
2022/07/26 02:57:01;;;;;;;;;;;17.30;99.90;;;;;;5137301;27;19924;-69
2022/07/26 02:59:27;;;;;;;;;;;17.80;99.90;;;;;;5137295;27;19927;-69
2022/07/26 03:01:52;;;;;;;;;;;17.90;99.90;;;;;;5136759;27;19974;-69
2022/07/26 03:04:19;;;;;;;;;;;17.90;99.90;;;;;;5137431;27;19923;-70
2022/07/26 03:06:44;;;;;;;;;;;17.90;99.90;;;;;;5137210;27;19960;-69
2022/07/26 03:09:10;;;;;;;;;;;17.80;99.90;;;;;;5137194;27;19923;-71
2022/07/26 03:11:36;;;;;;;;;;;17.70;99.90;;;;;;5137094;27;20275;-69
2022/07/26 03:14:01;;;;;;;;;;;17.80;99.90;;;;;;5137055;27;20275;-69
2022/07/26 03:16:27;;;;;;;;;;;17.80;99.90;;;;;;5153544;27;20374;-69
2022/07/26 03:18:52;;;;;;;;;;;17.80;99.90;;;;;;5119139;27;19930;-69
2022/07/26 03:21:18;;;;;;;;;;;17.80;99.90;;;;;;5137097;27;19983;-69
2022/07/26 03:23:43;;;;;;;;;;;17.80;99.90;;;;;;5137004;27;19948;-70
2022/07/26 03:26:09;;;;;;;;;;;17.80;99.90;;;;;;5152707;27;19930;-70
2022/07/26 03:28:35;;;;;;;;;;;17.80;99.90;;;;;;5136721;27;19924;-69
2022/07/26 03:31:00;;;;;;;;;;;17.70;99.90;;;;;;5136560;27;20053;-69
2022/07/26 03:33:26;;;;;;;;;;;17.70;99.90;;;;;;5136874;27;19924;-69
2022/07/26 03:35:52;;;;;;;;;;;17.60;99.90;;;;;;5153184;27;19970;-70
2022/07/26 03:38:17;;;;;;;;;;;17.50;99.90;;;;;;5136682;27;19924;-70
2022/07/26 03:40:43;;;;;;;;;;;17.40;99.90;;;;;;5136511;27;19930;-70
2022/07/26 03:43:08;;;;;;;;;;;17.40;99.90;;;;;;5136447;27;19924;-69
2022/07/26 03:45:34;;;;;;;;;;;17.30;99.90;;;;;;5136362;27;19981;-70
2022/07/26 03:48:00;;;;;;;;;;;17.30;99.90;;;;;;5136192;27;19924;-70
2022/07/26 03:50:25;;;;;;;;;;;17.20;99.90;;;;;;5136510;27;19976;-70
2022/07/26 03:52:51;;;;;;;;;;;17.20;99.90;;;;;;5136410;27;20267;-70
2022/07/26 03:58:00;;;;;;;;;;;17.20;99.90;;;;;;5136096;27;20301;-69
2022/07/26 04:00:26;;;;;;;;;;;17.20;99.90;;;;;;5118050;27;19923;-70
2022/07/26 04:02:51;;;;;;;;;;;17.10;99.90;;;;;;5136371;27;20332;-71
2022/07/26 04:05:17;;;;;;;;;;;17.10;99.90;;;;;;5136121;27;19927;-70
2022/07/26 04:07:43;;;;;;;;;;;17.10;99.90;;;;;;5117377;27;19965;-69
2022/07/26 04:10:09;;;;;;;;;;;16.10;99.90;;;;;;5136096;27;19965;-69
2022/07/26 04:12:34;;;;;;;;;;;17.00;99.90;;;;;;5135092;27;20324;-69
2022/07/26 04:15:00;;;;;;;;;;;17.10;99.90;;;;;;5135604;27;19923;-70
2022/07/26 04:17:25;;;;;;;;;;;16.90;99.90;;;;;;5136030;27;20255;-70
2022/07/26 04:19:51;;;;;;;;;;;16.90;99.90;;;;;;5135961;27;19928;-70
2022/07/26 04:22:16;;;;;;;;;;;16.90;99.90;;;;;;5136056;27;19927;-68
2022/07/26 04:24:42;;;;;;;;;;;16.90;99.90;;;;;;5117484;27;19923;-69
2022/07/26 04:27:07;;;;;;;;;;;16.90;99.90;;;;;;5135442;27;20285;-69
2022/07/26 04:29:33;;;;;;;;;;;16.90;99.90;;;;;;5151751;27;20293;-69
2022/07/26 04:31:58;;;;;;;;;;;16.80;99.90;;;;;;5135648;27;19924;-69
2022/07/26 04:34:24;;;;;;;;;;;16.80;99.90;;;;;;5135662;27;19946;-69
2022/07/26 04:36:50;;;;;;;;;;;16.80;99.90;;;;;;5135600;27;19924;-71
2022/07/26 04:39:15;;;;;;;;;;;16.80;99.90;;;;;;5135474;27;19924;-70
2022/07/26 04:41:41;;;;;;;;;;;16.80;99.90;;;;;;5135310;27;19930;-69
2022/07/26 04:44:06;;;;;;;;;;;16.70;99.90;;;;;;5135299;27;19927;-69
2022/07/26 04:46:32;;;;;;;;;;;16.70;99.90;;;;;;5135181;27;19931;-70
2022/07/26 04:48:57;;;;;;;;;;;16.70;99.90;;;;;;5135389;27;19923;-69
2022/07/26 04:51:24;;;;;;;;;;;16.70;99.90;;;;;;5135401;27;20027;-69
2022/07/26 04:53:50;;;;;;;;;;;16.70;99.90;;;;;;5135233;27;19930;-69
2022/07/26 04:56:15;;;;;;;;;;;16.70;99.90;;;;;;5135119;27;19923;-69
2022/07/26 04:58:41;;;;;;;;;;;16.70;99.90;;;;;;5135151;27;19924;-69
2022/07/26 05:01:06;;;;;;;;;;;16.70;99.90;;;;;;5134958;27;20285;-69
2022/07/26 05:03:33;;;;;;;;;;;16.70;99.90;;;;;;5135197;27;19946;-69
2022/07/26 05:05:59;;;;;;;;;;;16.70;99.90;;;;;;5135117;27;19949;-69
2022/07/26 05:08:24;;;;;;;;;;;16.70;99.90;;;;;;5134976;27;19923;-70
2022/07/26 05:10:50;;;;;;;;;;;16.70;99.90;;;;;;5134906;27;19945;-69
2022/07/26 05:13:15;;;;;;;;;;;16.70;99.90;;;;;;5134876;27;19924;-70
2022/07/26 05:15:41;;;;;;;;;;;16.70;99.90;;;;;;5116492;28;19967;-70
2022/07/26 05:18:07;;;;;;;;;;;16.30;99.90;;;;;;5099290;27;20019;-70
2022/07/26 05:20:34;;;;;;;;;;;16.70;99.90;;;;;;5135025;27;19930;-70
2022/07/26 05:22:59;;;;;;;;;;;16.70;99.90;;;;;;5135159;27;19923;-69
2022/07/26 05:25:25;;;;;;;;;;;16.70;99.90;;;;;;5147686;27;19923;-69
2022/07/26 05:27:51;;;;;;;;;;;16.70;99.90;;;;;;5114142;28;19931;-69
2022/07/26 05:30:16;;;;;;;;;;;16.70;99.90;;;;;;5114167;28;19935;-69
2022/07/26 05:32:42;;;;;;;;;;;16.60;99.90;;;;;;5114354;28;19980;-69
2022/07/26 05:35:08;;;;;;;;;;;16.70;99.90;;;;;;5114232;28;19930;-69
2022/07/26 05:37:34;;;;;;;;;;;16.70;99.90;;;;;;5114239;28;19930;-69
2022/07/26 05:39:59;;;;;;;;;;;16.70;99.90;;;;;;5113900;28;20313;-70
2022/07/26 05:42:25;;;;;;;;;;;16.80;99.90;;;;;;5096175;28;19948;-68
2022/07/26 05:44:51;;;;;;;;;;;16.60;99.90;;;;;;5114009;28;19946;-69
2022/07/26 05:47:16;;;;;;;;;;;16.50;99.90;;;;;;5095840;28;19977;-69
2022/07/26 05:49:42;;;;;;;;;;;16.60;99.90;;;;;;5113905;28;19973;-69
2022/07/26 05:52:07;;;;;;;;;;;16.60;99.90;;;;;;5114036;28;19924;-70
2022/07/26 05:54:33;;;;;;;;;;;16.50;99.90;;;;;;5113992;28;19949;-69
2022/07/26 05:56:58;;;;;;;;;;;16.40;99.90;;;;;;5113895;28;19931;-69
2022/07/26 05:59:24;;;;;;;;;;;16.40;99.90;;;;;;5113886;28;19950;-69
2022/07/26 06:01:49;;;;;;;;;;;16.40;99.90;;;;;;5113956;28;19924;-71
2022/07/26 06:04:15;;;;;;;;;;;16.40;99.90;;;;;;5113665;28;19930;-69
2022/07/26 06:06:41;;;;;;;;;;;16.40;99.90;;;;;;5095977;28;19985;-70
2022/07/26 06:09:06;;;;;;;;;;;16.40;99.90;;;;;;5113960;28;19928;-69
2022/07/26 06:11:32;;;;;;;;;;;16.40;99.90;;;;;;5095918;28;20028;-69
2022/07/26 06:13:57;;;;;;;;;;;16.40;99.90;;;;;;5113780;28;19928;-70
2022/07/26 06:16:23;;;;;;;;;;;16.70;99.90;;;;;;5113759;28;19927;-69
2022/07/26 06:18:48;;;;;;;;;;;16.40;99.90;;;;;;5113675;28;20279;-69
2022/07/26 06:21:14;;;;;;;;;;;16.50;99.90;;;;;;5113544;28;19923;-69
2022/07/26 06:23:39;;;;;;;;;;;16.40;99.90;;;;;;5113791;28;19978;-70
2022/07/26 06:26:05;;;;;;;;;;;16.40;99.90;;;;;;5104037;28;19923;-69
2022/07/26 06:28:31;;;;;;;;;;;16.50;99.90;;;;;;5115697;28;20270;-69
2022/07/26 06:30:57;;;;;;;;;;;16.40;99.90;;;;;;5134006;28;20310;-69
2022/07/26 06:33:22;;;;;;;;;;;16.40;99.90;;;;;;5115787;28;19923;-69
2022/07/26 06:35:48;;;;;;;;;;;16.30;99.90;;;;;;5133999;27;19924;-69
2022/07/26 06:38:13;;;;;;;;;;;16.20;99.90;;;;;;5154373;27;20018;-69
2022/07/26 06:40:39;;;;;;;;;;;16.10;99.90;;;;;;5137820;27;20344;-70
2022/07/26 06:43:04;;;;;;;;;;;16.20;99.90;;;;;;5137761;27;19945;-69
2022/07/26 06:45:30;;;;;;;;;;;16.10;99.90;;;;;;5137685;27;19927;-70
2022/07/26 06:47:56;;;;;;;;;;;16.10;99.90;;;;;;5137581;27;19923;-69
2022/07/26 06:50:21;;;;;;;;;;;16.10;99.90;;;;;;5137462;27;20394;-69
2022/07/26 06:52:47;;;;;;;;;;;15.90;99.90;;;;;;5119327;27;19931;-69
2022/07/26 06:55:13;;;;;;;;;;;16.10;99.90;;;;;;5137656;27;20385;-69
2022/07/26 06:57:39;;;;;;;;;;;16.10;99.90;;;;;;5137453;27;19970;-70
2022/07/26 07:00:06;;;;;;;;;;;16.10;99.90;;;;;;5119373;27;20298;-69
2022/07/26 07:02:31;;;;;;;;;;;16.20;99.90;;;;;;5119204;27;19931;-69
2022/07/26 07:04:57;;;;;;;;;;;16.20;99.90;;;;;;5137194;27;20301;-69
2022/07/26 07:07:22;;;;;;;;;;;16.30;99.90;;;;;;5137055;27;20368;-69
2022/07/26 07:09:48;;;;;;;;;;;16.30;99.90;;;;;;5137248;27;19930;-69
2022/07/26 07:12:14;;;;;;;;;;;16.30;99.90;;;;;;5137209;27;19979;-69
2022/07/26 07:14:40;;;;;;;;;;;16.40;99.90;;;;;;5137208;27;20014;-69
2022/07/26 07:17:05;;;;;;;;;;;16.30;99.90;;;;;;5136995;27;19929;-69
2022/07/26 07:19:33;;;;;;;;;;;16.20;99.90;;;;;;5118568;27;19923;-69
2022/07/26 07:21:58;;;;;;;;;;;16.30;99.90;;;;;;5136858;27;19923;-70
2022/07/26 07:24:24;;;;;;;;;;;16.20;99.90;;;;;;5137362;27;19997;-69
2022/07/26 07:26:49;;;;;;;;;;;16.10;99.90;;;;;;5136767;27;19923;-68
2022/07/26 07:29:16;;;;;;;;;;;16.10;99.90;;;;;;5136613;27;19927;-70
2022/07/26 07:31:42;;;;;;;;;;;16.50;99.90;;;;;;5118461;27;19923;-70
2022/07/26 07:34:07;;;;;;;;;;;16.10;99.90;;;;;;5136778;27;19950;-70
2022/07/26 07:36:33;;;;;;;;;;;16.10;99.90;;;;;;5136666;27;20455;-70
2022/07/26 07:38:58;;;;;;;;;;;16.20;99.90;;;;;;5136821;27;20286;-69
2022/07/26 07:41:24;;;;;;;;;;;16.20;99.90;;;;;;5136487;27;19958;-70
2022/07/26 07:43:50;;;;;;;;;;;16.20;99.90;;;;;;5136690;27;20293;-69
2022/07/26 07:46:15;;;;;;;;;;;16.30;99.90;;;;;;5152789;27;19931;-68
2022/07/26 07:48:41;;;;;;;;;;;16.40;99.90;;;;;;5136340;27;19981;-69
2022/07/26 07:51:07;;;;;;;;;;;16.40;99.90;;;;;;5118336;27;19928;-69
2022/07/26 07:53:32;;;;;;;;;;;16.40;99.90;;;;;;5136145;27;19923;-68
2022/07/26 07:55:58;;;;;;;;;;;16.40;99.90;;;;;;5136479;27;19923;-69
2022/07/26 07:58:24;;;;;;;;;;;16.50;99.90;;;;;;5118434;27;20261;-69
2022/07/26 08:00:49;;;;;;;;;;;16.50;99.90;;;;;;5136172;27;20358;-69
2022/07/26 08:03:15;;;;;;;;;;;16.50;99.90;;;;;;5136290;27;20373;-70
2022/07/26 08:05:41;;;;;;;;;;;16.50;99.90;;;;;;5136086;27;19923;-69
2022/07/26 08:08:06;;;;;;;;;;;16.50;99.90;;;;;;5135919;27;19977;-69
2022/07/26 08:10:32;;;;;;;;;;;16.60;99.90;;;;;;5136124;27;20307;-69
2022/07/26 08:12:57;;;;;;;;;;;16.60;99.90;;;;;;5136115;27;19924;-69
2022/07/26 08:15:23;;;;;;;;;;;16.60;99.90;;;;;;5136017;27;19931;-69
2022/07/26 08:17:49;;;;;;;;;;;16.70;99.90;;;;;;5135942;27;20397;-69
2022/07/26 08:20:15;;;;;;;;;;;16.80;99.90;;;;;;5152225;27;19965;-68
2022/07/26 08:22:40;;;;;;;;;;;16.80;99.90;;;;;;5135660;27;19930;-70
2022/07/26 08:25:06;;;;;;;;;;;16.90;99.90;;;;;;5135527;27;19935;-69
2022/07/26 08:27:32;;;;;;;;;;;17.00;99.90;;;;;;5135357;27;20018;-71
2022/07/26 08:29:57;;;;;;;;;;;17.10;99.90;;;;;;5117536;27;20008;-69
2022/07/26 08:32:23;;;;;;;;;;;17.00;99.90;;;;;;5135533;27;19924;-69
2022/07/26 08:34:48;;;;;;;;;;;17.00;99.90;;;;;;5135435;27;19924;-69
2022/07/26 08:37:14;;;;;;;;;;;16.90;99.90;;;;;;5116792;27;19929;-69
2022/07/26 08:39:40;;;;;;;;;;;16.80;99.90;;;;;;5135249;27;19927;-70
2022/07/26 08:42:12;;;;;;;;;;;16.70;99.90;;;;;;5135546;27;20271;-69
2022/07/26 08:44:39;;;;;;;;;;;16.60;99.90;;;;;;5117231;27;20329;-69
2022/07/26 08:47:05;;;;;;;;;;;16.60;99.90;;;;;;5135298;27;19923;-69
2022/07/26 08:49:31;;;;;;;;;;;16.60;99.90;;;;;;5151658;27;19923;-70
2022/07/26 08:51:58;;;;;;;;;;;16.60;99.90;;;;;;5135141;27;19924;-69
2022/07/26 08:54:26;;;;;;;;;;;16.60;99.90;;;;;;5135096;27;20084;-69
2022/07/26 08:56:52;;;;;;;;;;;16.70;99.90;;;;;;5135244;27;20378;-69
2022/07/26 08:59:18;;;;;;;;;;;16.70;99.90;;;;;;5134660;27;19934;-69
2022/07/26 09:01:57;;;;;;;;;;;16.70;99.90;;;;;;5135187;27;20450;-69
2022/07/26 09:04:34;;;;;;;;;;;16.80;99.90;;;;;;5134991;27;20374;-69
2022/07/26 09:07:04;;;;;;;;;;;16.90;99.90;;;;;;5134873;27;19930;-69
2022/07/26 09:09:31;;;;;;;;;;;17.00;99.90;;;;;;5135112;27;20031;-69
2022/07/26 09:11:57;;;;;;;;;;;17.00;99.90;;;;;;5135085;27;19923;-69
2022/07/26 09:14:34;;;;;;;;;;;17.00;99.90;;;;;;5134987;27;19930;-69
2022/07/26 09:16:59;;;;;;;;;;;17.10;99.90;;;;;;5134856;27;19923;-70
2022/07/26 09:19:25;;;;;;;;;;;17.10;99.90;;;;;;5134732;27;19930;-69
2022/07/26 09:21:51;;;;;;;;;;;17.10;99.90;;;;;;5135014;27;20010;-70
2022/07/26 09:24:30;;;;;;;;;;;17.10;99.90;;;;;;5134937;27;19971;-70
2022/07/26 09:26:56;;;;;;;;;;;17.10;99.90;;;;;;5134553;27;20022;-70
2022/07/26 09:29:21;;;;;;;;;;;17.20;99.90;;;;;;5116590;27;19959;-69
2022/07/26 09:31:47;;;;;;;;;;;17.20;99.90;;;;;;5134773;28;20290;-69
2022/07/26 09:34:22;;;;;;;;;;;17.20;99.90;;;;;;5134544;28;19927;-69
2022/07/26 09:36:51;;;;;;;;;;;17.20;99.90;;;;;;5134727;28;19927;-70
2022/07/26 09:39:17;;;;;;;;;;;17.30;99.90;;;;;;5134707;28;19923;-69
2022/07/26 09:41:43;;;;;;;;;;;17.40;99.90;;;;;;5116089;28;19931;-69
2022/07/26 09:44:22;;;;;;;;;;;17.40;99.90;;;;;;5134592;28;20266;-69
2022/07/26 09:46:52;;;;;;;;;;;17.50;99.90;;;;;;5134389;28;19928;-69
2022/07/26 09:49:19;;;;;;;;;;;17.40;99.90;;;;;;5134534;28;20439;-69
2022/07/26 09:51:46;;;;;;;;;;;17.30;99.90;;;;;;5134644;28;20297;-70
2022/07/26 09:54:16;;;;;;;;;;;17.30;99.90;;;;;;5134570;28;19924;-70
2022/07/26 09:56:42;;;;;;;;;;;17.30;99.90;;;;;;5134394;28;19931;-69
2022/07/26 09:59:08;;;;;;;;;;;17.20;99.90;;;;;;5134472;28;19928;-69
2022/07/26 10:01:33;;;;;;;;;;;17.20;99.90;;;;;;5134408;28;19946;-70
2022/07/26 10:03:59;;;;;;;;;;;17.30;99.90;;;;;;5134468;28;19924;-69
2022/07/26 10:06:24;;;;;;;;;;;17.30;99.90;;;;;;5134464;28;19928;-69
2022/07/26 10:08:50;;;;;;;;;;;17.30;99.90;;;;;;5134456;28;20465;-69
2022/07/26 10:11:17;;;;;;;;;;;17.00;99.90;;;;;;5135037;27;20435;-69
2022/07/26 10:13:45;;;;;;;;;;;17.20;99.90;;;;;;5120324;27;19927;-70
2022/07/26 10:16:30;;;;;;;;;;;17.20;99.90;;;;;;5138130;27;20430;-70
2022/07/26 10:18:57;;;;;;;;;;;17.00;99.90;;;;;;5138330;27;19923;-70
2022/07/26 10:21:23;;;;;;;;;;;17.10;99.90;;;;;;5138262;27;19930;-69
2022/07/26 10:23:52;;;;;;;;;;;16.40;99.90;;;;;;5138072;27;19970;-69
2022/07/26 10:26:30;;;;;;;;;;;17.10;99.90;;;;;;5138208;27;20033;-70
2022/07/26 10:29:15;;;;;;;;;;;17.10;99.90;;;;;;5137815;27;19924;-70
2022/07/26 10:31:44;;;;;;;;;;;17.20;99.90;;;;;;5153922;27;20366;-68
2022/07/26 10:34:09;;;;;;;;;;;17.10;99.90;;;;;;5119892;27;19992;-69
2022/07/26 10:36:36;;;;;;;;;;;17.10;99.90;;;;;;5119841;27;20378;-68
2022/07/26 10:39:01;;;;;;;;;;;17.10;99.90;;;;;;5137865;27;19975;-70
2022/07/26 10:41:31;;;;;;;;;;;17.00;99.90;;;;;;5137551;27;20408;-69
2022/07/26 10:44:16;;;;;;;;;;;17.00;99.90;;;;;;5137996;27;19927;-69
2022/07/26 10:47:00;;;;;;;;;;;17.00;99.90;;;;;;5119496;27;19923;-69
2022/07/26 10:49:28;;;;;;;;;;;16.90;99.90;;;;;;5137580;27;20382;-69
2022/07/26 10:52:04;;;;;;;;;;;17.00;99.90;;;;;;5137391;27;19976;-69
2022/07/26 10:54:30;;;;;;;;;;;16.90;99.90;;;;;;5137596;27;19984;-69
2022/07/26 10:56:58;;;;;;;;;;;16.90;99.90;;;;;;5137465;27;20362;-69
2022/07/26 10:59:31;;;;;;;;;;;16.90;99.90;;;;;;5137523;27;19923;-69
2022/07/26 11:01:57;;;;;;;;;;;16.80;99.90;;;;;;5137572;27;20294;-69
2022/07/26 11:04:24;;;;;;;;;;;16.80;99.90;;;;;;5119264;27;19924;-70
2022/07/26 11:06:50;;;;;;;;;;;16.90;99.90;;;;;;5137134;27;19923;-68
2022/07/26 11:09:17;;;;;;;;;;;16.90;99.90;;;;;;5119259;27;19976;-70
2022/07/26 11:11:44;;;;;;;;;;;16.90;99.90;;;;;;5137232;27;20013;-69
2022/07/26 11:14:10;;;;;;;;;;;17.00;99.90;;;;;;5137197;27;19968;-69
2022/07/26 11:16:40;;;;;;;;;;;17.00;99.90;;;;;;5119026;27;19923;-69
2022/07/26 11:19:31;;;;;;;;;;;17.00;99.90;;;;;;5136973;27;20317;-69
2022/07/26 11:21:58;;;;;;;;;;;17.10;99.90;;;;;;5132381;27;20037;-69
2022/07/26 11:24:25;;;;;;;;;;;17.10;99.90;;;;;;5137039;27;19930;-69
2022/07/26 11:26:51;;;;;;;;;;;17.20;99.90;;;;;;5136761;27;19930;-69
2022/07/26 11:29:26;;;;;;;;;;;17.20;99.90;;;;;;5136764;27;20512;-70
2022/07/26 11:31:52;;;;;;;;;;;17.20;99.90;;;;;;5136756;27;20370;-69
2022/07/26 11:34:19;;;;;;;;;;;17.30;99.90;;;;;;5136904;27;19923;-69
2022/07/26 11:36:45;;;;;;;;;;;17.30;99.90;;;;;;5118773;27;19930;-70
2022/07/26 11:39:12;;;;;;;;;;;17.40;99.90;;;;;;5136752;27;20018;-70
2022/07/26 11:41:38;;;;;;;;;;;17.50;99.90;;;;;;5136562;27;20406;-69
2022/07/26 11:44:04;;;;;;;;;;;17.50;99.90;;;;;;5136639;27;19924;-69
2022/07/26 11:46:37;;;;;;;;;;;17.60;99.90;;;;;;5136430;27;19967;-70
2022/07/26 11:49:04;;;;;;;;;;;17.60;99.90;;;;;;5118326;27;19924;-69
2022/07/26 11:51:30;;;;;;;;;;;17.60;99.90;;;;;;5118240;27;19930;-68
2022/07/26 11:53:59;;;;;;;;;;;16.60;99.90;;;;;;5152716;27;20006;-69
2022/07/26 11:56:26;;;;;;;;;;;17.60;99.90;;;;;;5136309;27;19976;-70
2022/07/26 11:58:53;;;;;;;;;;;17.60;99.90;;;;;;5136204;27;19923;-70
2022/07/26 12:01:19;;;;;;;;;;;17.60;99.90;;;;;;5136104;27;19957;-69
2022/07/26 12:03:46;;;;;;;;;;;17.60;99.90;;;;;;5118015;27;19930;-69
2022/07/26 12:06:16;;;;;;;;;;;17.60;99.90;;;;;;5136267;27;19923;-69
2022/07/26 12:08:47;;;;;;;;;;;17.60;99.90;;;;;;5117785;27;19977;-69
2022/07/26 12:11:13;;;;;;;;;;;17.60;99.90;;;;;;5136019;27;19930;-68
2022/07/26 12:13:55;;;;;;;;;;;17.70;99.90;;;;;;5135934;27;19937;-69
2022/07/26 12:16:33;;;;;;;;;;;17.70;99.90;;;;;;5136045;27;20399;-69
2022/07/26 12:18:58;;;;;;;;;;;17.80;99.90;;;;;;5135986;27;20390;-69
2022/07/26 12:21:36;;;;;;;;;;;17.90;99.90;;;;;;5117856;27;19924;-70
2022/07/26 12:24:02;;;;;;;;;;;18.00;99.90;;;;;;5135822;27;19937;-70
2022/07/26 12:26:29;;;;;;;;;;;18.00;99.90;;;;;;5135242;27;19927;-69
2022/07/26 12:28:58;;;;;;;;;;;18.00;99.90;;;;;;5134760;27;21447;-70
2022/07/26 12:31:25;;;;;;;;;;;18.10;99.90;;;;;;5135685;27;19976;-69
2022/07/26 12:33:51;;;;;;;;;;;18.00;99.90;;;;;;5134679;27;20370;-69
2022/07/26 12:36:20;;;;;;;;;;;18.20;99.90;;;;;;5135539;27;20156;-69
2022/07/26 12:38:46;;;;;;;;;;;18.20;99.90;;;;;;5135506;27;20388;-70
2022/07/26 12:41:12;;;;;;;;;;;18.20;99.90;;;;;;5151628;27;19950;-69
2022/07/26 12:43:40;;;;;;;;;;;18.20;99.90;;;;;;5116795;27;19927;-69
2022/07/26 12:46:06;;;;;;;;;;;18.20;99.90;;;;;;5135565;27;19993;-69
2022/07/26 12:48:31;;;;;;;;;;;18.20;99.90;;;;;;5135327;27;20397;-69
2022/07/26 12:50:57;;;;;;;;;;;18.20;99.90;;;;;;5117037;27;19934;-69
2022/07/26 12:53:22;;;;;;;;;;;18.30;99.90;;;;;;5117170;27;20275;-69
2022/07/26 12:55:48;;;;;;;;;;;18.30;99.90;;;;;;5116981;27;19927;-69
2022/07/26 12:58:14;;;;;;;;;;;18.40;99.90;;;;;;5135297;27;19931;-71
2022/07/26 13:00:39;;;;;;;;;;;18.40;99.90;;;;;;5135458;27;19923;-69
2022/07/26 13:03:05;;;;;;;;;;;18.40;99.90;;;;;;5117016;27;19931;-69
2022/07/26 13:05:30;;;;;;;;;;;18.40;99.90;;;;;;5135045;27;19968;-69
2022/07/26 13:07:56;;;;;;;;;;;18.30;99.90;;;;;;5134977;27;19931;-68
2022/07/26 13:10:22;;;;;;;;;;;18.40;99.90;;;;;;5134880;27;19923;-70
2022/07/26 13:12:47;;;;;;;;;;;18.40;99.90;;;;;;5134725;27;19939;-69
2022/07/26 13:15:13;;;;;;;;;;;18.30;99.90;;;;;;5135087;27;19930;-70
2022/07/26 13:17:38;;;;;;;;;;;18.30;99.90;;;;;;5116858;27;19930;-69
2022/07/26 13:20:04;;;;;;;;;;;18.40;99.90;;;;;;5134956;27;19974;-69
2022/07/26 13:22:30;;;;;;;;;;;18.10;99.90;;;;;;5134774;27;19924;-69
2022/07/26 13:24:55;;;;;;;;;;;18.40;99.90;;;;;;5134787;27;19928;-69
2022/07/26 13:27:21;;;;;;;;;;;18.40;99.90;;;;;;5134355;27;19931;-69
2022/07/26 13:29:46;;;;;;;;;;;18.30;99.90;;;;;;5116417;28;20307;-69
2022/07/26 13:32:12;;;;;;;;;;;18.20;99.90;;;;;;5134805;27;19923;-69
2022/07/26 13:34:38;;;;;;;;;;;18.20;99.90;;;;;;5134780;28;19923;-69
2022/07/26 13:37:03;;;;;;;;;;;18.20;99.90;;;;;;5116676;28;20026;-71
2022/07/26 13:39:29;;;;;;;;;;;18.20;99.90;;;;;;5134641;28;19931;-69
2022/07/26 13:41:54;;;;;;;;;;;18.30;99.90;;;;;;5134466;28;19930;-69
2022/07/26 13:44:21;;;;;;;;;;;18.20;99.90;;;;;;5134503;28;20386;-69
2022/07/26 13:46:47;;;;;;;;;;;18.20;99.90;;;;;;5119402;27;19977;-69
2022/07/26 13:49:12;;;;;;;;;;;18.20;99.90;;;;;;5138994;27;19928;-70
2022/07/26 13:51:56;;;;;;;;;;;18.20;99.90;;;;;;5138811;27;19930;-69
2022/07/26 13:54:25;;;;;;;;;;;18.20;99.90;;;;;;5138657;27;20309;-69
2022/07/26 13:56:50;;;;;;;;;;;18.20;99.90;;;;;;5138492;27;19930;-69
2022/07/26 13:59:16;;;;;;;;;;;18.20;99.90;;;;;;5120715;27;19923;-70
2022/07/26 14:01:42;;;;;;;;;;;18.20;99.90;;;;;;5138605;27;20293;-70
2022/07/26 14:04:08;;;;;;;;;;;18.20;99.90;;;;;;5138673;27;20385;-69
2022/07/26 14:06:33;;;;;;;;;;;18.20;99.90;;;;;;5138556;27;19923;-70
2022/07/26 14:08:59;;;;;;;;;;;18.20;99.90;;;;;;5138480;27;19927;-69
2022/07/26 14:11:25;;;;;;;;;;;18.30;99.90;;;;;;5120172;27;20381;-69
2022/07/26 14:13:51;;;;;;;;;;;18.30;99.90;;;;;;5138539;27;19987;-70
2022/07/26 14:16:17;;;;;;;;;;;18.30;99.90;;;;;;5138373;27;19923;-69
2022/07/26 14:18:42;;;;;;;;;;;18.30;99.90;;;;;;5138370;27;19924;-69